createdAt,value
2023-03-30T00:02:19.698Z,11.97
2023-03-30T00:04:52.201Z,10.13
2023-03-30T00:07:21.844Z,9.93
2023-03-30T00:09:50.300Z,11.97
2023-03-30T00:12:24.042Z,16.60
2023-03-30T00:14:54.954Z,16.30
2023-03-30T00:17:33.428Z,13.20
2023-03-30T00:20:08.997Z,15.70
2023-03-30T00:22:39.845Z,13.43
2023-03-30T00:25:12.072Z,15.33
2023-03-30T00:27:54.924Z,12.20
2023-03-30T00:30:27.920Z,9.87
2023-03-30T00:32:59.424Z,11.10
2023-03-30T00:35:30.801Z,12.30
2023-03-30T00:38:06.178Z,10.90
2023-03-30T00:40:43.349Z,10.73
2023-03-30T00:43:25.646Z,12.20
2023-03-30T00:45:59.874Z,8.53
2023-03-30T00:48:37.034Z,7.90
2023-03-30T00:51:16.396Z,9.27
2023-03-30T00:53:49.201Z,13.60
2023-03-30T00:56:23.415Z,9.13
2023-03-30T00:59:01.212Z,11.80
2023-03-30T01:01:39.077Z,9.40
2023-03-30T01:04:11.280Z,10.47
2023-03-30T01:06:43.747Z,10.37
2023-03-30T01:09:15.577Z,8.43
2023-03-30T01:11:45.094Z,8.80
2023-03-30T01:14:17.056Z,9.17
2023-03-30T01:16:52.504Z,14.40
2023-03-30T01:19:43.857Z,10.63
2023-03-30T01:22:40.160Z,11.70
2023-03-30T01:25:39.102Z,8.17
2023-03-30T01:28:36.455Z,8.17
2023-03-30T01:31:42.322Z,10.30
2023-03-30T01:34:36.701Z,9.87
2023-03-30T01:37:45.111Z,10.77
2023-03-30T01:40:20.157Z,12.67
2023-03-30T01:42:59.974Z,11.63
2023-03-30T01:45:37.296Z,9.17
2023-03-30T01:48:15.770Z,8.40
2023-03-30T01:50:52.944Z,8.77
2023-03-30T01:53:27.368Z,10.00
2023-03-30T01:56:05.021Z,13.10
2023-03-30T01:58:37.808Z,10.03
2023-03-30T02:01:10.370Z,10.63
2023-03-30T02:03:42.694Z,10.27
2023-03-30T02:06:24.637Z,10.03
2023-03-30T02:08:59.454Z,12.50
2023-03-30T02:11:35.680Z,9.53
2023-03-30T02:14:13.226Z,10.30
2023-03-30T02:16:47.892Z,11.30
2023-03-30T02:19:22.058Z,9.23
2023-03-30T02:22:07.196Z,10.20
2023-03-30T02:24:39.158Z,11.70
2023-03-30T02:27:11.126Z,12.20
2023-03-30T02:29:43.347Z,10.23
2023-03-30T02:32:21.158Z,8.87
2023-03-30T02:35:05.209Z,8.27
2023-03-30T02:37:48.732Z,11.00
2023-03-30T02:40:44.423Z,9.30
2023-03-30T02:43:32.774Z,10.37
2023-03-30T02:46:32.377Z,9.73
2023-03-30T02:49:10.989Z,11.10
2023-03-30T02:51:48.923Z,9.33
2023-03-30T02:54:31.448Z,12.50
2023-03-30T02:57:51.725Z,8.83
2023-03-30T03:00:49.778Z,9.53
2023-03-30T03:03:29.872Z,9.13
2023-03-30T03:06:05.579Z,10.83
2023-03-30T03:08:41.229Z,14.20
2023-03-30T03:11:25.957Z,11.30
2023-03-30T03:13:58.352Z,11.53
2023-03-30T03:16:45.504Z,13.87
2023-03-30T03:19:22.187Z,8.40
2023-03-30T03:21:55.918Z,12.97
2023-03-30T03:24:29.624Z,9.50
2023-03-30T03:27:17.735Z,10.13
2023-03-30T03:30:24.416Z,10.20
2023-03-30T03:33:08.220Z,8.20
2023-03-30T03:35:39.440Z,8.57
2023-03-30T03:38:18.835Z,15.33
2023-03-30T03:40:57.133Z,9.40
2023-03-30T03:43:34.648Z,9.63
2023-03-30T03:46:05.757Z,11.13
2023-03-30T03:48:43.662Z,10.83
2023-03-30T03:51:15.469Z,12.53
2023-03-30T03:53:50.014Z,8.93
2023-03-30T03:56:23.543Z,12.50
2023-03-30T03:58:54.610Z,10.20
2023-03-30T04:01:23.709Z,9.23
2023-03-30T04:04:01.084Z,7.73
2023-03-30T04:06:30.818Z,12.53
2023-03-30T04:09:02.191Z,8.87
2023-03-30T04:12:01.552Z,11.30
2023-03-30T04:14:50.680Z,10.77
2023-03-30T04:17:33.860Z,13.70
2023-03-30T04:20:28.921Z,11.10
2023-03-30T04:23:23.152Z,9.77
2023-03-30T04:26:30.510Z,9.70
2023-03-30T04:29:21.271Z,16.43
2023-03-30T04:32:21.330Z,9.60
2023-03-30T04:35:12.809Z,9.90
2023-03-30T04:38:22.230Z,8.23
2023-03-30T04:41:17.908Z,10.47
2023-03-30T04:43:49.618Z,9.63
2023-03-30T04:46:42.422Z,12.27
2023-03-30T04:49:47.732Z,13.27
2023-03-30T04:52:47.437Z,10.70
2023-03-30T04:55:37.149Z,10.20
2023-03-30T04:58:38.387Z,10.03
2023-03-30T05:01:45.652Z,13.13
2023-03-30T05:04:44.202Z,12.30
2023-03-30T05:07:32.378Z,10.47
2023-03-30T05:10:21.884Z,9.20
2023-03-30T05:13:25.382Z,9.13
2023-03-30T05:16:22.540Z,9.63
2023-03-30T05:19:09.687Z,9.47
2023-03-30T05:21:53.941Z,10.27
2023-03-30T05:24:41.686Z,9.10
2023-03-30T05:27:36.468Z,13.20
2023-03-30T05:30:31.056Z,10.70
2023-03-30T05:33:25.805Z,10.47
2023-03-30T05:36:19.985Z,8.90
2023-03-30T05:39:14.600Z,8.30
2023-03-30T05:42:01.997Z,10.07
2023-03-30T05:45:10.900Z,12.60
2023-03-30T05:48:08.888Z,18.23
2023-03-30T05:50:40.849Z,15.53
2023-03-30T05:53:16.057Z,11.17
2023-03-30T05:56:23.024Z,11.83
2023-03-30T05:59:16.714Z,10.77
2023-03-30T06:02:19.952Z,10.70
2023-03-30T06:04:56.038Z,10.07
2023-03-30T06:07:25.971Z,12.37
2023-03-30T06:09:59.694Z,10.83
2023-03-30T06:12:31.927Z,14.10
2023-03-30T06:15:02.671Z,9.73
2023-03-30T06:18:06.682Z,10.27
2023-03-30T06:20:41.150Z,16.70
2023-03-30T06:23:11.580Z,11.90
2023-03-30T06:25:44.826Z,11.47
2023-03-30T06:28:16.108Z,11.57
2023-03-30T06:30:49.137Z,9.37
2023-03-30T06:33:26.118Z,14.80
2023-03-30T06:36:12.046Z,11.60
2023-03-30T06:38:48.562Z,11.10
2023-03-30T06:41:28.016Z,9.57
2023-03-30T06:43:58.740Z,13.57
2023-03-30T06:46:36.061Z,13.10
2023-03-30T06:49:05.183Z,11.50
2023-03-30T06:51:54.755Z,14.33
2023-03-30T06:54:24.814Z,11.47
2023-03-30T06:57:08.504Z,9.47
2023-03-30T06:59:40.680Z,13.83
2023-03-30T07:02:33.297Z,15.33
2023-03-30T07:05:25.960Z,9.53
2023-03-30T07:08:19.653Z,9.23
2023-03-30T07:10:54.861Z,9.30
2023-03-30T07:13:29.992Z,8.00
2023-03-30T07:16:04.004Z,13.17
2023-03-30T07:18:44.880Z,11.63
2023-03-30T07:21:22.743Z,13.60
2023-03-30T07:24:02.135Z,8.63
2023-03-30T07:26:41.206Z,11.40
2023-03-30T07:29:20.818Z,11.80
2023-03-30T07:32:07.188Z,10.23
2023-03-30T07:34:42.545Z,7.90
2023-03-30T07:37:20.676Z,8.03
2023-03-30T07:40:08.176Z,8.43
2023-03-30T07:42:58.543Z,10.07
2023-03-30T07:45:30.522Z,12.27
2023-03-30T07:48:02.431Z,10.63
2023-03-30T07:50:33.263Z,11.63
2023-03-30T07:53:05.857Z,11.43
2023-03-30T07:55:43.756Z,8.70
2023-03-30T07:58:22.649Z,9.10
2023-03-30T08:00:54.661Z,10.23
2023-03-30T08:03:48.447Z,9.37
2023-03-30T08:06:22.756Z,10.50
2023-03-30T08:09:04.780Z,11.57
2023-03-30T08:11:39.990Z,9.63
2023-03-30T08:14:17.587Z,10.10
2023-03-30T08:16:45.898Z,8.67
2023-03-30T08:19:15.849Z,10.73
2023-03-30T08:21:52.233Z,9.97
2023-03-30T08:24:20.979Z,8.00
2023-03-30T08:26:56.413Z,9.07
2023-03-30T08:29:34.227Z,7.83
2023-03-30T08:32:03.538Z,7.17
2023-03-30T08:34:34.333Z,8.67
2023-03-30T08:37:05.684Z,8.57
2023-03-30T08:39:39.660Z,8.27
2023-03-30T08:42:18.474Z,8.30
2023-03-30T08:44:55.712Z,8.80
2023-03-30T08:47:33.649Z,8.00
2023-03-30T08:50:14.270Z,9.53
2023-03-30T08:52:55.771Z,10.13
2023-03-30T08:55:35.351Z,13.90
2023-03-30T08:58:18.797Z,15.00
2023-03-30T09:00:57.050Z,9.83
2023-03-30T09:03:33.902Z,10.60
2023-03-30T09:06:09.277Z,13.27
2023-03-30T09:08:40.706Z,11.60
2023-03-30T09:11:13.274Z,12.43
2023-03-30T09:13:46.475Z,13.60
2023-03-30T09:16:21.675Z,10.63
2023-03-30T09:18:52.630Z,11.83
2023-03-30T09:21:31.588Z,10.40
2023-03-30T09:24:02.321Z,10.27
2023-03-30T09:26:39.754Z,10.60
2023-03-30T09:29:18.319Z,9.50
2023-03-30T09:31:53.456Z,14.10
2023-03-30T09:34:30.917Z,9.07
2023-03-30T09:37:04.920Z,9.27
2023-03-30T09:39:38.482Z,9.80
2023-03-30T09:42:37.337Z,10.73
2023-03-30T09:45:23.341Z,11.40
2023-03-30T09:47:55.223Z,12.40
2023-03-30T09:50:29.408Z,8.33
2023-03-30T09:53:04.461Z,9.50
2023-03-30T09:55:34.642Z,9.83
2023-03-30T09:58:17.628Z,8.10
2023-03-30T10:00:57.360Z,8.97
2023-03-30T10:03:29.625Z,10.33
2023-03-30T10:06:07.548Z,9.77
2023-03-30T10:08:52.424Z,11.47
2023-03-30T10:11:26.904Z,8.70
2023-03-30T10:13:58.217Z,10.23
2023-03-30T10:16:35.223Z,10.83
2023-03-30T10:19:21.213Z,11.33
2023-03-30T10:22:05.563Z,8.53
2023-03-30T10:24:37.393Z,8.67
2023-03-30T10:27:11.631Z,9.97
2023-03-30T10:29:46.706Z,10.70
2023-03-30T10:32:20.910Z,11.60
2023-03-30T10:34:56.663Z,10.83
2023-03-30T10:37:31.248Z,8.53
2023-03-30T10:40:06.541Z,13.03
2023-03-30T10:42:37.584Z,8.30
2023-03-30T10:45:10.937Z,8.20
2023-03-30T10:47:53.980Z,12.63
2023-03-30T10:50:32.737Z,10.27
2023-03-30T10:53:13.625Z,11.13
2023-03-30T10:55:48.738Z,8.30
2023-03-30T10:58:27.619Z,9.90
2023-03-30T11:01:12.982Z,10.43
2023-03-30T11:03:50.184Z,8.70
2023-03-30T11:06:27.481Z,10.73
2023-03-30T11:08:59.529Z,14.87
2023-03-30T11:11:37.579Z,11.63
2023-03-30T11:14:10.162Z,15.73
2023-03-30T11:16:47.715Z,11.53
2023-03-30T11:19:25.964Z,9.40
2023-03-30T11:21:59.536Z,9.03
2023-03-30T11:24:31.549Z,8.00
2023-03-30T11:27:05.409Z,14.80
2023-03-30T11:29:40.807Z,8.70
2023-03-30T11:32:17.554Z,8.33
2023-03-30T11:34:58.682Z,10.83
2023-03-30T11:37:37.738Z,7.87
2023-03-30T11:40:18.609Z,12.43
2023-03-30T11:42:51.367Z,9.30
2023-03-30T11:45:40.009Z,11.60
2023-03-30T11:48:32.084Z,13.47
2023-03-30T11:51:21.614Z,9.70
2023-03-30T11:53:58.632Z,9.73
2023-03-30T11:56:39.905Z,10.30
2023-03-30T12:02:13.992Z,14.80
2023-03-30T12:04:48.577Z,9.43
2023-03-30T12:07:34.896Z,10.27
2023-03-30T12:10:08.372Z,10.43
2023-03-30T12:12:40.443Z,9.43
2023-03-30T12:15:27.218Z,13.17
2023-03-30T12:18:01.718Z,8.27
2023-03-30T12:20:39.495Z,9.43
2023-03-30T12:23:32.324Z,8.93
2023-03-30T12:26:16.366Z,10.13
2023-03-30T12:29:15.283Z,8.60
2023-03-30T12:32:11.202Z,7.53
2023-03-30T12:34:47.582Z,10.20
2023-03-30T12:37:26.764Z,7.57
2023-03-30T12:40:06.963Z,11.20
2023-03-30T12:42:46.516Z,12.43
2023-03-30T12:45:37.568Z,10.80
2023-03-30T12:48:24.387Z,11.30
2023-03-30T12:51:10.508Z,11.50
2023-03-30T12:53:56.228Z,10.67
2023-03-30T12:56:41.781Z,11.03
2023-03-30T12:59:45.786Z,11.63
2023-03-30T13:02:43.538Z,10.10
2023-03-30T13:05:28.550Z,9.40
2023-03-30T13:07:57.258Z,12.30
2023-03-30T13:10:42.710Z,9.80
2023-03-30T13:13:27.970Z,13.03
2023-03-30T13:15:58.778Z,15.67
2023-03-30T13:18:58.485Z,16.13
2023-03-30T13:21:28.124Z,11.40
2023-03-30T13:24:03.426Z,12.70
2023-03-30T13:26:54.169Z,9.70
2023-03-30T13:29:33.482Z,20.57
2023-03-30T13:32:16.515Z,19.43
2023-03-30T13:35:06.810Z,12.93
2023-03-30T13:38:19.711Z,12.43
2023-03-30T13:41:04.466Z,10.20
2023-03-30T13:43:48.406Z,11.13
2023-03-30T13:46:33.020Z,10.57
2023-03-30T13:49:24.067Z,9.37
2023-03-30T13:51:55.822Z,10.00
2023-03-30T13:54:27.724Z,10.53
2023-03-30T13:57:00.746Z,10.50
2023-03-30T13:59:35.464Z,9.20
2023-03-30T14:02:12.384Z,9.63
2023-03-30T14:04:48.403Z,9.90
2023-03-30T14:07:22.648Z,10.03
2023-03-30T14:10:16.698Z,11.90
2023-03-30T14:12:49.668Z,11.60
2023-03-30T14:15:21.615Z,12.03
2023-03-30T14:17:57.246Z,10.93
2023-03-30T14:20:41.230Z,11.80
2023-03-30T14:23:18.848Z,10.03
2023-03-30T14:25:48.365Z,10.57
2023-03-30T14:28:28.768Z,12.13
2023-03-30T14:31:06.114Z,12.43
2023-03-30T14:33:44.357Z,13.13
2023-03-30T14:36:24.240Z,10.90
2023-03-30T14:38:56.270Z,10.33
2023-03-30T14:41:27.995Z,11.93
2023-03-30T14:44:01.970Z,12.37
2023-03-30T14:46:37.504Z,11.53
2023-03-30T14:49:08.467Z,12.27
2023-03-30T14:51:41.552Z,12.80
2023-03-30T14:54:15.785Z,11.80
2023-03-30T14:56:54.778Z,10.40
2023-03-30T14:59:33.070Z,12.70
2023-03-30T15:02:11.927Z,8.30
2023-03-30T15:04:47.953Z,8.63
2023-03-30T15:07:20.512Z,8.50
2023-03-30T15:09:58.993Z,9.87
2023-03-30T15:12:29.776Z,11.27
2023-03-30T15:15:02.777Z,8.77
2023-03-30T15:17:33.825Z,8.20
2023-03-30T15:20:07.568Z,8.90
2023-03-30T15:22:42.185Z,7.73
2023-03-30T15:25:17.478Z,11.50
2023-03-30T15:27:56.565Z,8.90
2023-03-30T15:30:30.548Z,11.80
2023-03-30T15:33:09.386Z,9.80
2023-03-30T15:35:48.980Z,11.30
2023-03-30T15:38:22.530Z,12.50
2023-03-30T15:40:53.842Z,10.50
2023-03-30T15:43:28.133Z,9.47
2023-03-30T15:46:01.159Z,10.60
2023-03-30T15:48:40.374Z,14.03
2023-03-30T15:51:14.879Z,8.60
2023-03-30T15:53:54.459Z,11.23
2023-03-30T15:56:34.934Z,13.37
2023-03-30T15:59:05.963Z,10.80
2023-03-30T16:01:47.497Z,12.20
2023-03-30T16:04:26.020Z,13.50
2023-03-30T16:07:13.467Z,14.73
2023-03-30T16:09:44.346Z,15.60
2023-03-30T16:12:16.355Z,16.03
2023-03-30T16:14:46.819Z,20.53
2023-03-30T16:17:21.269Z,12.50
2023-03-30T16:19:53.208Z,16.00
2023-03-30T16:22:26.660Z,15.97
2023-03-30T16:25:01.826Z,13.93
2023-03-30T16:27:40.131Z,15.17
2023-03-30T16:30:19.639Z,20.00
2023-03-30T16:32:54.642Z,17.27
2023-03-30T16:35:26.334Z,24.30
2023-03-30T16:38:01.976Z,14.90
2023-03-30T16:40:33.284Z,12.80
2023-03-30T16:43:09.485Z,12.70
2023-03-30T16:45:46.684Z,11.30
2023-03-30T16:48:30.855Z,12.87
2023-03-30T16:51:10.849Z,8.90
2023-03-30T16:53:47.753Z,13.80
2023-03-30T16:56:22.190Z,11.30
2023-03-30T16:58:53.063Z,8.67
2023-03-30T17:01:23.318Z,8.63
2023-03-30T17:03:53.590Z,7.43
2023-03-30T17:06:34.546Z,6.17
2023-03-30T17:09:17.653Z,13.40
2023-03-30T17:11:50.678Z,7.53
2023-03-30T17:14:34.782Z,10.73
2023-03-30T17:17:16.258Z,6.10
2023-03-30T17:19:56.826Z,8.53
2023-03-30T17:22:34.945Z,8.27
2023-03-30T17:25:10.568Z,5.40
2023-03-30T17:27:47.975Z,5.53
2023-03-30T17:30:21.690Z,5.00
2023-03-30T17:32:52.462Z,4.00
2023-03-30T17:35:23.968Z,8.40
2023-03-30T17:38:17.422Z,4.07
2023-03-30T17:41:14.516Z,7.90
2023-03-30T17:43:49.092Z,5.37
2023-03-30T17:46:19.938Z,4.87
2023-03-30T17:48:59.671Z,4.57
2023-03-30T17:51:39.456Z,6.17
2023-03-30T17:54:20.268Z,3.80
2023-03-30T17:57:09.691Z,5.40
2023-03-30T18:00:09.462Z,7.10
2023-03-30T18:02:40.617Z,8.30
2023-03-30T18:05:21.052Z,6.10
2023-03-30T18:07:54.441Z,6.90
2023-03-30T18:10:27.587Z,4.97
2023-03-30T18:13:08.018Z,8.20
2023-03-30T18:15:52.229Z,5.60
2023-03-30T18:18:36.621Z,5.87
2023-03-30T18:21:13.637Z,3.87
2023-03-30T18:23:54.403Z,6.50
2023-03-30T18:26:39.673Z,4.87
2023-03-30T18:29:23.531Z,3.47
2023-03-30T18:31:54.015Z,7.00
2023-03-30T18:34:36.604Z,3.37
2023-03-30T18:37:15.790Z,5.47
2023-03-30T18:39:57.706Z,7.67
2023-03-30T18:42:34.978Z,2.23
2023-03-30T18:45:19.172Z,2.23
2023-03-30T18:47:53.222Z,2.50
2023-03-30T18:50:45.627Z,4.07
2023-03-30T18:53:40.506Z,2.17
2023-03-30T18:56:15.490Z,2.33
2023-03-30T18:58:55.581Z,2.60
2023-03-30T19:01:27.772Z,1.97
2023-03-30T19:04:17.658Z,2.83
2023-03-30T19:06:58.691Z,5.20
2023-03-30T19:09:42.484Z,3.27
2023-03-30T19:12:27.847Z,2.27
2023-03-30T19:15:17.853Z,2.03
2023-03-30T19:18:09.903Z,3.33
2023-03-30T19:20:44.824Z,3.10
2023-03-30T19:23:18.726Z,2.03
2023-03-30T19:25:59.152Z,2.40
2023-03-30T19:28:31.710Z,1.83
2023-03-30T19:31:21.582Z,2.70
2023-03-30T19:34:12.272Z,3.50
2023-03-30T19:36:50.441Z,2.43
2023-03-30T19:39:33.105Z,5.43
2023-03-30T19:42:08.792Z,3.80
2023-03-30T19:44:46.939Z,4.83
2023-03-30T19:47:20.306Z,2.53
2023-03-30T19:49:57.456Z,3.30
2023-03-30T19:52:31.505Z,2.13
2023-03-30T19:55:13.030Z,1.90
2023-03-30T19:57:48.253Z,3.00
2023-03-30T20:00:20.817Z,3.53
2023-03-30T20:03:04.345Z,2.80
2023-03-30T20:05:36.073Z,3.60
2023-03-30T20:08:22.952Z,3.90
2023-03-30T20:11:07.550Z,2.40
2023-03-30T20:13:46.470Z,3.90
2023-03-30T20:16:25.996Z,3.00
2023-03-30T20:18:58.232Z,2.27
2023-03-30T20:21:37.540Z,2.80
2023-03-30T20:24:09.892Z,2.30
2023-03-30T20:26:49.785Z,2.60
2023-03-30T20:29:23.868Z,2.47
2023-03-30T20:31:53.230Z,2.60
2023-03-30T20:34:28.488Z,2.70
2023-03-30T20:37:02.641Z,3.17
2023-03-30T20:39:31.458Z,5.53
2023-03-30T20:42:02.728Z,6.27
2023-03-30T20:44:32.511Z,4.63
2023-03-30T20:47:05.511Z,2.90
2023-03-30T20:49:42.042Z,5.40
2023-03-30T20:52:12.864Z,3.00
2023-03-30T20:54:44.827Z,3.77
2023-03-30T20:57:21.879Z,2.80
2023-03-30T20:59:53.505Z,2.50
2023-03-30T21:02:21.633Z,3.87
2023-03-30T21:04:52.663Z,2.63
2023-03-30T21:07:27.837Z,3.17
2023-03-30T21:09:57.153Z,4.17
2023-03-30T21:12:29.976Z,5.50
2023-03-30T21:15:01.779Z,2.73
2023-03-30T21:17:31.060Z,2.97
2023-03-30T21:20:01.444Z,3.60
2023-03-30T21:22:33.260Z,4.40
2023-03-30T21:25:02.216Z,4.43
2023-03-30T21:27:31.933Z,4.40
2023-03-30T21:30:04.603Z,2.73
2023-03-30T21:32:33.932Z,3.23
2023-03-30T21:35:05.644Z,2.97
2023-03-30T21:37:36.579Z,4.67
2023-03-30T21:40:05.972Z,5.63
2023-03-30T21:42:40.530Z,4.10
2023-03-30T21:45:22.858Z,4.80
2023-03-30T21:47:56.881Z,4.13
2023-03-30T21:50:28.830Z,3.17
2023-03-30T21:53:04.998Z,3.03
2023-03-30T21:55:33.257Z,3.10
2023-03-30T21:58:03.982Z,3.17
2023-03-30T22:00:35.596Z,2.60
2023-03-30T22:03:05.129Z,2.87
2023-03-30T22:05:47.344Z,3.57
2023-03-30T22:08:27.415Z,2.97
2023-03-30T22:11:04.986Z,4.13
2023-03-30T22:13:36.676Z,4.03
2023-03-30T22:16:08.594Z,3.53
2023-03-30T22:18:39.342Z,4.30
2023-03-30T22:21:15.691Z,3.77
2023-03-30T22:23:59.355Z,3.17
2023-03-30T22:26:37.348Z,3.83
2023-03-30T22:29:14.471Z,5.13
2023-03-30T22:31:45.466Z,5.37
2023-03-30T22:34:15.003Z,3.70
2023-03-30T22:36:44.000Z,6.03
2023-03-30T22:39:21.540Z,3.60
2023-03-30T22:41:53.818Z,2.97
2023-03-30T22:44:24.393Z,2.10
2023-03-30T22:46:55.035Z,3.73
2023-03-30T22:49:27.624Z,2.83
2023-03-30T22:51:56.699Z,3.43
2023-03-30T22:54:42.307Z,3.47
2023-03-30T22:57:14.413Z,3.33
2023-03-30T22:59:54.591Z,3.07
2023-03-30T23:02:33.689Z,3.10
2023-03-30T23:05:08.806Z,2.33
2023-03-30T23:07:40.621Z,9.00
2023-03-30T23:10:25.545Z,4.93
2023-03-30T23:12:54.199Z,2.43
2023-03-30T23:15:23.697Z,2.10
2023-03-30T23:17:52.218Z,3.17
2023-03-30T23:20:23.326Z,1.73
2023-03-30T23:22:57.021Z,2.30
2023-03-30T23:25:32.067Z,4.67
2023-03-30T23:28:03.514Z,1.80
2023-03-30T23:30:44.988Z,2.17
2023-03-30T23:33:13.974Z,4.83
2023-03-30T23:35:53.483Z,2.00
2023-03-30T23:38:23.788Z,2.83
2023-03-30T23:41:02.776Z,2.70
2023-03-30T23:43:31.674Z,2.33
2023-03-30T23:46:05.172Z,1.57
2023-03-30T23:48:34.102Z,1.70
2023-03-30T23:51:06.037Z,1.87
2023-03-30T23:53:40.579Z,1.33
2023-03-30T23:56:14.091Z,2.13
2023-03-30T23:58:43.394Z,3.03
